createdAt,value
2023-03-04T09:01:55.315Z,39.45
2023-03-04T09:04:40.495Z,33.49
2023-03-04T09:07:25.461Z,30.89
2023-03-04T09:10:10.429Z,29.38
2023-03-04T09:12:55.215Z,26.61
2023-03-04T09:15:40.366Z,24.44
2023-03-04T09:18:25.940Z,23.31
2023-03-04T09:21:11.120Z,21.80
2023-03-04T09:23:56.355Z,19.60
2023-03-04T09:26:41.312Z,19.16
2023-03-04T09:29:26.339Z,18.06
2023-03-04T09:32:11.516Z,17.08
2023-03-04T09:34:56.934Z,16.18
2023-03-04T09:37:42.299Z,15.24
2023-03-04T09:40:27.172Z,14.18
2023-03-04T09:43:12.239Z,13.97
2023-03-04T09:45:57.135Z,13.46
2023-03-04T09:48:42.070Z,13.28
2023-03-04T09:51:26.940Z,13.31
2023-03-04T09:54:12.102Z,12.23
2023-03-04T09:56:57.198Z,12.31
2023-03-04T09:59:42.115Z,12.12
2023-03-04T10:02:27.019Z,12.23
2023-03-04T10:05:12.058Z,11.65
2023-03-04T10:07:57.024Z,11.60
2023-03-04T10:10:42.082Z,11.45
2023-03-04T10:13:27.024Z,11.06
2023-03-04T10:16:11.924Z,11.09
2023-03-04T10:18:56.867Z,11.30
2023-03-04T10:21:41.739Z,10.95
2023-03-04T10:24:26.777Z,10.55
2023-03-04T10:27:11.886Z,10.86
2023-03-04T10:29:56.857Z,10.74
2023-03-04T10:32:41.848Z,10.75
2023-03-04T10:35:26.858Z,10.93
2023-03-04T10:38:11.743Z,10.33
2023-03-04T10:40:56.556Z,9.88
2023-03-04T10:43:41.393Z,10.47
2023-03-04T10:46:26.204Z,10.26
2023-03-04T10:49:11.141Z,10.43
2023-03-04T10:51:57.652Z,10.08
2023-03-04T10:54:42.907Z,10.09
2023-03-04T10:57:27.952Z,9.94
2023-03-04T11:00:12.722Z,9.95
2023-03-04T11:02:57.686Z,10.17
2023-03-04T11:05:42.690Z,9.89
2023-03-04T11:08:27.699Z,10.17
2023-03-04T11:11:12.615Z,10.35
2023-03-04T11:13:57.391Z,9.88
2023-03-04T11:16:42.673Z,9.40
2023-03-04T11:19:27.610Z,9.94
2023-03-04T11:22:12.471Z,10.00
2023-03-04T11:24:57.432Z,9.91
2023-03-04T11:27:42.313Z,9.54
2023-03-04T11:30:27.334Z,9.62
2023-03-04T11:33:12.330Z,9.30
2023-03-04T11:35:57.516Z,9.35
2023-03-04T11:38:42.885Z,9.23
2023-03-04T11:41:27.754Z,9.66
2023-03-04T11:44:12.558Z,9.72
2023-03-04T11:46:57.422Z,14.89
2023-03-04T11:49:42.318Z,17.56
2023-03-04T11:52:27.244Z,20.60
2023-03-04T11:55:12.334Z,18.66
2023-03-04T11:57:57.155Z,17.12
2023-03-04T12:00:42.181Z,16.13
2023-03-04T12:03:27.079Z,14.91
2023-03-04T12:06:11.921Z,14.33
2023-03-04T12:08:56.891Z,13.49
2023-03-04T12:11:41.860Z,12.57
2023-03-04T12:14:26.667Z,12.63
2023-03-04T12:17:11.507Z,12.02
2023-03-04T12:19:56.410Z,11.58
2023-03-04T12:22:41.154Z,11.63
2023-03-04T12:25:26.032Z,11.32
2023-03-04T12:28:10.891Z,10.71
2023-03-04T12:30:55.843Z,11.49
2023-03-04T12:33:41.086Z,11.10
2023-03-04T12:36:26.107Z,10.46
2023-03-04T12:39:11.261Z,10.72
2023-03-04T12:41:56.375Z,10.56
2023-03-04T12:44:41.222Z,10.31
2023-03-04T12:47:26.623Z,10.08
2023-03-04T12:50:11.783Z,10.33
